createdAt,value
2023-02-24T06:40:10.717Z,1005.83
2023-02-24T06:41:10.709Z,1005.77
2023-02-24T06:42:10.688Z,1005.75
2023-02-24T06:43:10.666Z,1005.67
2023-02-24T06:44:10.646Z,1005.65
2023-02-24T06:45:10.640Z,1005.67
2023-02-24T06:46:10.690Z,1005.65
2023-02-24T06:47:10.646Z,1005.68
2023-02-24T06:48:10.603Z,1005.62
2023-02-24T06:49:10.600Z,1005.62
2023-02-24T06:50:10.581Z,1005.64
2023-02-24T06:51:10.602Z,1005.67
2023-02-24T06:52:10.560Z,1005.69
2023-02-24T06:53:10.554Z,1005.68
2023-02-24T06:54:10.523Z,1005.69
2023-02-24T06:55:10.516Z,1005.67
2023-02-24T06:56:10.539Z,1005.66
2023-02-24T06:57:10.510Z,1005.64
2023-02-24T06:58:10.493Z,1005.66
2023-02-24T06:59:10.471Z,1005.69
2023-02-24T07:00:10.467Z,1005.62
2023-02-24T07:01:10.474Z,1005.62
2023-02-24T07:02:10.451Z,1005.60
2023-02-24T07:03:10.440Z,1005.59
2023-02-24T07:04:10.500Z,1005.65
2023-02-24T07:05:10.414Z,1005.57
2023-02-24T07:06:10.402Z,1005.59
2023-02-24T07:07:10.410Z,1005.56
2023-02-24T07:08:10.397Z,1005.60
2023-02-24T07:09:10.357Z,1005.58
2023-02-24T07:10:10.349Z,1005.57
2023-02-24T07:11:10.340Z,1005.59
2023-02-24T07:12:10.358Z,1005.58
2023-02-24T07:13:10.339Z,1005.59
2023-02-24T07:14:10.298Z,1005.63
2023-02-24T07:15:10.308Z,1005.60
2023-02-24T07:16:10.276Z,1005.58
2023-02-24T07:17:10.304Z,1005.60
2023-02-24T07:18:10.274Z,1005.60
2023-02-24T07:19:10.249Z,1005.62
2023-02-24T07:20:10.241Z,1005.57
2023-02-24T07:21:10.233Z,1005.59
2023-02-24T07:22:10.225Z,1005.54
2023-02-24T07:23:10.212Z,1005.56
2023-02-24T07:24:10.212Z,1005.54
2023-02-24T07:25:10.176Z,1005.52
2023-02-24T07:26:10.222Z,1005.52
2023-02-24T07:27:10.152Z,1005.48
2023-02-24T07:28:10.173Z,1005.50
2023-02-24T07:29:10.142Z,1005.48
2023-02-24T07:30:10.143Z,1005.47
2023-02-24T07:31:10.237Z,1005.47
2023-02-24T07:32:10.200Z,1005.42
2023-02-24T07:33:10.085Z,1005.43
2023-02-24T07:34:10.112Z,1005.41
2023-02-24T07:35:10.077Z,1005.42
2023-02-24T07:36:10.047Z,1005.38
2023-02-24T07:37:10.042Z,1005.38
2023-02-24T07:38:10.023Z,1005.38
2023-02-24T07:39:10.029Z,1005.35
2023-02-24T07:40:10.052Z,1005.35
2023-02-24T07:41:10.006Z,1005.32
2023-02-24T07:42:10.005Z,1005.31
2023-02-24T07:43:09.987Z,1005.32
2023-02-24T07:44:09.985Z,1005.32
2023-02-24T07:45:09.976Z,1005.30
2023-02-24T07:46:10.007Z,1005.36
2023-02-24T07:47:09.925Z,1005.28
2023-02-24T07:48:09.921Z,1005.31
2023-02-24T07:49:09.913Z,1005.26
2023-02-24T07:50:09.897Z,1005.29
2023-02-24T07:51:09.874Z,1005.26
2023-02-24T07:52:09.879Z,1005.27
2023-02-24T07:53:09.862Z,1005.23
2023-02-24T07:54:09.855Z,1005.22
2023-02-24T07:55:09.832Z,1005.15
2023-02-24T07:56:09.834Z,1005.19
2023-02-24T07:57:09.814Z,1005.16
2023-02-24T07:58:09.806Z,1005.16
2023-02-24T07:59:09.814Z,1005.15
2023-02-24T08:00:12.183Z,1005.13
2023-02-24T08:01:09.758Z,1005.11
2023-02-24T08:02:09.816Z,1005.08
2023-02-24T08:03:09.736Z,1005.07
2023-02-24T08:04:09.741Z,1005.08
2023-02-24T08:05:09.787Z,1005.09
2023-02-24T08:06:09.706Z,1005.07
2023-02-24T08:07:09.698Z,1004.99
2023-02-24T08:08:09.697Z,1004.97
2023-02-24T08:09:09.672Z,1004.97
2023-02-24T08:10:09.682Z,1004.92
2023-02-24T08:11:09.659Z,1004.85
2023-02-24T08:12:09.666Z,1004.89
2023-02-24T08:13:09.640Z,1004.83
2023-02-24T08:14:09.626Z,1004.78
2023-02-24T08:15:09.600Z,1004.80
2023-02-24T08:16:09.652Z,1004.75
2023-02-24T08:17:09.593Z,1004.74
2023-02-24T08:18:09.598Z,1004.74
2023-02-24T08:19:09.571Z,1004.72
2023-02-24T08:20:09.562Z,1004.72
2023-02-24T08:21:09.533Z,1004.72
2023-02-24T08:22:09.542Z,1004.71
2023-02-24T08:23:09.523Z,1004.69
2023-02-24T08:24:09.516Z,1004.68
2023-02-24T08:25:09.485Z,1004.66
2023-02-24T08:26:09.515Z,1004.66
2023-02-24T08:27:09.469Z,1004.64
2023-02-24T08:28:09.933Z,1004.65
2023-02-24T08:29:09.454Z,1004.63
2023-02-24T08:30:09.451Z,1004.60
2023-02-24T08:31:09.559Z,1004.60
2023-02-24T08:32:09.672Z,1004.62
2023-02-24T08:33:09.469Z,1004.62
2023-02-24T08:34:09.402Z,1004.55
2023-02-24T08:35:09.396Z,1004.55
2023-02-24T08:36:09.364Z,1004.52
2023-02-24T08:37:09.351Z,1004.50
2023-02-24T08:38:09.358Z,1004.52
2023-02-24T08:39:09.327Z,1004.52
2023-02-24T08:40:09.320Z,1004.54
2023-02-24T08:41:09.318Z,1004.54
2023-02-24T08:42:09.298Z,1004.55
2023-02-24T08:43:09.308Z,1004.54
2023-02-24T08:44:09.366Z,1004.50
2023-02-24T08:45:09.274Z,1004.50
2023-02-24T08:46:09.307Z,1004.44
2023-02-24T08:47:09.252Z,1004.46
2023-02-24T08:48:09.272Z,1004.44
2023-02-24T08:49:09.230Z,1004.45
2023-02-24T08:50:09.223Z,1004.43
2023-02-24T08:51:09.194Z,1004.45
2023-02-24T08:52:09.201Z,1004.43
2023-02-24T08:53:09.191Z,1004.41
2023-02-24T08:54:09.192Z,1004.38
2023-02-24T08:55:09.164Z,1004.39
2023-02-24T08:56:09.159Z,1004.33
2023-02-24T08:57:09.147Z,1004.28
2023-02-24T08:58:09.135Z,1004.28
2023-02-24T08:59:09.136Z,1004.25
2023-02-24T09:00:09.118Z,1004.26
2023-02-24T09:01:09.116Z,1004.22
2023-02-24T09:02:09.093Z,1004.23
2023-02-24T09:03:09.075Z,1004.19
2023-02-24T09:04:09.093Z,1004.16
2023-02-24T09:05:09.159Z,1004.17
2023-02-24T09:06:09.039Z,1004.19
2023-02-24T09:07:11.899Z,1004.17
2023-02-24T09:08:09.022Z,1004.18
2023-02-24T09:09:09.011Z,1004.12
2023-02-24T09:10:09.003Z,1004.13
2023-02-24T09:11:08.974Z,1004.16
2023-02-24T09:12:08.978Z,1004.18
2023-02-24T09:13:08.958Z,1004.18
2023-02-24T09:14:17.979Z,1004.16
2023-02-24T09:15:09.941Z,1004.14
2023-02-24T09:16:08.968Z,1004.08
2023-02-24T09:17:08.913Z,1004.07
2023-02-24T09:18:08.909Z,1004.06
2023-02-24T09:19:08.900Z,1004.03
2023-02-24T09:20:08.908Z,1004.06
2023-02-24T09:21:08.861Z,1004.08
2023-02-24T09:22:16.523Z,1004.04
2023-02-24T09:23:09.858Z,1004.02
2023-02-24T09:24:08.846Z,1004.06
2023-02-24T09:25:08.843Z,1004.07
2023-02-24T09:26:08.821Z,1004.04
2023-02-24T09:27:08.786Z,1004.03
2023-02-24T09:28:08.802Z,1004.04
2023-02-24T09:29:08.766Z,1004.04
2023-02-24T09:30:08.788Z,1004.03
2023-02-24T09:31:08.899Z,1004.01
2023-02-24T09:32:08.838Z,1003.99
2023-02-24T09:33:08.911Z,1004.00
2023-02-24T09:34:08.725Z,1003.98
2023-02-24T09:35:08.714Z,1004.00
2023-02-24T09:36:08.726Z,1003.94
2023-02-24T09:37:08.673Z,1003.94
2023-02-24T09:38:08.748Z,1003.90
2023-02-24T09:39:08.665Z,1003.90
2023-02-24T09:40:08.679Z,1003.86
2023-02-24T09:41:29.181Z,1003.87
2023-02-24T09:42:09.629Z,1003.87
2023-02-24T09:43:08.606Z,1003.88
2023-02-24T09:44:08.623Z,1003.87
2023-02-24T09:45:08.596Z,1003.90
2023-02-24T09:46:08.726Z,1003.83
2023-02-24T09:47:08.576Z,1003.85
2023-02-24T09:48:08.556Z,1003.88
2023-02-24T09:49:08.551Z,1003.79
2023-02-24T09:50:08.560Z,1003.86
2023-02-24T09:51:08.517Z,1003.81
2023-02-24T09:52:08.567Z,1003.82
2023-02-24T09:53:11.504Z,1003.86
2023-02-24T09:54:08.493Z,1003.84
2023-02-24T09:55:08.488Z,1003.83
2023-02-24T09:56:08.481Z,1003.77
2023-02-24T09:57:08.737Z,1003.74
2023-02-24T09:58:08.447Z,1003.73
2023-02-24T09:59:08.425Z,1003.70
2023-02-24T10:00:08.421Z,1003.71
2023-02-24T10:01:08.465Z,1003.70
2023-02-24T10:02:08.436Z,1003.70
2023-02-24T10:03:08.391Z,1003.57
2023-02-24T10:04:20.265Z,1003.63
2023-02-24T10:05:09.358Z,1003.63
2023-02-24T10:06:08.367Z,1003.67
2023-02-24T10:07:08.350Z,1003.67
2023-02-24T10:08:08.360Z,1003.65
2023-02-24T10:09:08.344Z,1003.67
2023-02-24T10:10:08.321Z,1003.63
2023-02-24T10:11:08.328Z,1003.58
2023-02-24T10:12:08.298Z,1003.57
2023-02-24T10:13:08.312Z,1003.57
2023-02-24T10:14:08.266Z,1003.51
2023-02-24T10:15:08.246Z,1003.48
2023-02-24T10:16:08.286Z,1003.40
2023-02-24T10:17:08.239Z,1003.44
2023-02-24T10:18:08.212Z,1003.41
2023-02-24T10:19:08.214Z,1003.37
2023-02-24T10:20:08.209Z,1003.35
2023-02-24T10:21:08.304Z,1003.35
2023-02-24T10:22:08.168Z,1003.35
2023-02-24T10:23:08.169Z,1003.35
2023-02-24T10:24:08.185Z,1003.33
2023-02-24T10:25:08.129Z,1003.33
2023-02-24T10:26:08.122Z,1003.28
2023-02-24T10:27:08.927Z,1003.30
2023-02-24T10:28:08.102Z,1003.27
2023-02-24T10:29:08.119Z,1003.29
2023-02-24T10:30:08.096Z,1003.28
2023-02-24T10:31:08.232Z,1003.30
2023-02-24T10:32:08.333Z,1003.24
2023-02-24T10:33:08.052Z,1003.24
2023-02-24T10:34:08.056Z,1003.23
2023-02-24T10:35:08.028Z,1003.26
2023-02-24T10:36:08.037Z,1003.22
2023-02-24T10:37:10.338Z,1003.24
2023-02-24T10:38:08.000Z,1003.25
2023-02-24T10:39:07.981Z,1003.24
2023-02-24T10:40:08.015Z,1003.23
2023-02-24T10:41:07.963Z,1003.20
2023-02-24T10:42:08.022Z,1003.24
2023-02-24T10:43:07.931Z,1003.18
2023-02-24T10:44:07.934Z,1003.22
2023-02-24T10:45:09.865Z,1003.21
2023-02-24T10:46:08.003Z,1003.17
2023-02-24T10:47:07.883Z,1003.16
2023-02-24T10:48:08.639Z,1003.15
2023-02-24T10:49:07.856Z,1003.13
2023-02-24T10:50:07.872Z,1003.11
2023-02-24T10:51:07.868Z,1003.12
2023-02-24T10:52:07.846Z,1003.08
2023-02-24T10:53:07.815Z,1003.08
2023-02-24T10:54:07.805Z,1003.08
2023-02-24T10:55:07.790Z,1003.08
2023-02-24T10:56:07.835Z,1003.08
2023-02-24T10:57:07.827Z,1003.02
2023-02-24T10:58:07.780Z,1003.02
2023-02-24T10:59:07.748Z,1003.00
2023-02-24T11:00:07.736Z,1003.03
2023-02-24T11:01:07.786Z,1002.99
2023-02-24T11:02:07.788Z,1002.99
2023-02-24T11:03:07.737Z,1002.96
2023-02-24T11:04:07.744Z,1002.96
2023-02-24T11:05:07.680Z,1002.92
2023-02-24T11:06:07.673Z,1002.87
2023-02-24T11:07:07.688Z,1002.84
2023-02-24T11:08:07.648Z,1002.88
2023-02-24T11:09:07.636Z,1002.84
2023-02-24T11:10:10.153Z,1002.87
2023-02-24T11:11:07.606Z,1002.82
2023-02-24T11:12:07.622Z,1002.81
2023-02-24T11:13:10.387Z,1002.77
2023-02-24T11:14:07.602Z,1002.77
2023-02-24T11:15:07.562Z,1002.80
2023-02-24T11:16:07.628Z,1002.76
2023-02-24T11:17:07.549Z,1002.72
2023-02-24T11:18:07.559Z,1002.72
2023-02-24T11:19:07.623Z,1002.71
2023-02-24T11:20:07.521Z,1002.67
2023-02-24T11:21:07.504Z,1002.66
2023-02-24T11:22:08.423Z,1002.63
2023-02-24T11:23:07.468Z,1002.64
2023-02-24T11:24:07.474Z,1002.56
2023-02-24T11:25:07.444Z,1002.58
2023-02-24T11:26:07.450Z,1002.56
2023-02-24T11:27:08.397Z,1002.57
2023-02-24T11:28:07.447Z,1002.55
2023-02-24T11:29:07.426Z,1002.62
2023-02-24T11:30:07.423Z,1002.57
2023-02-24T11:31:07.590Z,1002.54
2023-02-24T11:32:07.453Z,1002.53
2023-02-24T11:33:07.366Z,1002.50
2023-02-24T11:34:07.380Z,1002.47
2023-02-24T11:35:07.345Z,1002.39
2023-02-24T11:36:07.643Z,1002.40
2023-02-24T11:37:07.384Z,1002.38
2023-02-24T11:38:07.367Z,1002.39
2023-02-24T11:39:17.753Z,1002.38
2023-02-24T11:40:08.293Z,1002.36
2023-02-24T11:41:07.339Z,1002.35
2023-02-24T11:42:07.259Z,1002.30
2023-02-24T11:43:07.483Z,1002.31
2023-02-24T11:44:07.272Z,1002.30
2023-02-24T11:45:07.329Z,1002.28
2023-02-24T11:46:07.412Z,1002.26
2023-02-24T11:47:07.222Z,1002.23
2023-02-24T11:48:07.209Z,1002.22
2023-02-24T11:49:07.188Z,1002.18
2023-02-24T11:50:07.202Z,1002.19
2023-02-24T11:51:07.177Z,1002.15
2023-02-24T11:52:07.154Z,1002.13
2023-02-24T11:53:07.154Z,1002.15
2023-02-24T11:54:07.124Z,1002.09
2023-02-24T11:55:07.122Z,1002.07
2023-02-24T11:56:07.120Z,1002.04
2023-02-24T11:57:07.156Z,1002.04
2023-02-24T11:58:07.073Z,1002.03
2023-02-24T11:59:07.131Z,1002.01
2023-02-24T12:00:07.157Z,1001.98
2023-02-24T12:01:07.051Z,1001.96
2023-02-24T12:02:07.031Z,1001.98
2023-02-24T12:03:07.060Z,1002.01
2023-02-24T12:04:07.033Z,1001.90
2023-02-24T12:05:07.046Z,1001.97
2023-02-24T12:06:07.118Z,1001.93
2023-02-24T12:07:07.006Z,1001.90
2023-02-24T12:08:06.989Z,1001.87
2023-02-24T12:09:06.964Z,1001.85
2023-02-24T12:10:16.504Z,1001.81
2023-02-24T12:11:07.956Z,1001.81
2023-02-24T12:12:06.914Z,1001.77
2023-02-24T12:13:07.060Z,1001.77
2023-02-24T12:14:06.905Z,1001.74
2023-02-24T12:15:06.934Z,1001.74
2023-02-24T12:16:06.983Z,1001.70
2023-02-24T12:17:06.864Z,1001.71
2023-02-24T12:18:06.849Z,1001.69
2023-02-24T12:19:06.841Z,1001.67
2023-02-24T12:20:06.869Z,1001.67
2023-02-24T12:21:06.835Z,1001.66
2023-02-24T12:22:06.937Z,1001.63
2023-02-24T12:23:06.804Z,1001.62
2023-02-24T12:24:08.673Z,1001.57
2023-02-24T12:25:06.781Z,1001.60
2023-02-24T12:26:06.967Z,1001.54
2023-02-24T12:27:06.833Z,1001.57
2023-02-24T12:28:06.748Z,1001.51
2023-02-24T12:29:06.817Z,1001.49
2023-02-24T12:30:06.909Z,1001.50
2023-02-24T12:31:06.936Z,1001.48
2023-02-24T12:32:06.897Z,1001.48
2023-02-24T12:33:06.679Z,1001.42
2023-02-24T12:34:06.659Z,1001.42
2023-02-24T12:35:06.676Z,1001.40
2023-02-24T12:36:06.640Z,1001.37
2023-02-24T12:37:06.658Z,1001.39
2023-02-24T12:38:06.625Z,1001.36
2023-02-24T12:39:06.625Z,1001.31
2023-02-24T12:40:06.599Z,1001.33
2023-02-24T12:41:06.594Z,1001.30
2023-02-24T12:42:06.594Z,1001.28
2023-02-24T12:43:06.573Z,1001.29
2023-02-24T12:44:06.608Z,1001.28
2023-02-24T12:45:06.551Z,1001.25
2023-02-24T12:46:06.616Z,1001.28
2023-02-24T12:47:06.533Z,1001.24
2023-02-24T12:48:06.532Z,1001.22
2023-02-24T12:49:06.504Z,1001.22
2023-02-24T12:50:06.476Z,1001.21
2023-02-24T12:51:06.468Z,1001.24
2023-02-24T12:52:06.480Z,1001.24
2023-02-24T12:53:06.480Z,1001.17
2023-02-24T12:54:06.433Z,1001.17
2023-02-24T12:55:06.450Z,1001.16
2023-02-24T12:56:06.440Z,1001.13
2023-02-24T12:57:06.419Z,1001.12
2023-02-24T12:58:06.398Z,1001.08
2023-02-24T12:59:06.425Z,1001.09
2023-02-24T13:00:06.365Z,1001.11
2023-02-24T13:01:06.426Z,1001.08
2023-02-24T13:02:06.423Z,1001.08
2023-02-24T13:03:06.354Z,1001.06
2023-02-24T13:04:06.392Z,1001.03
2023-02-24T13:05:06.746Z,1001.00
2023-02-24T13:06:06.302Z,1001.02
2023-02-24T13:07:06.315Z,1000.97
2023-02-24T13:08:06.277Z,1000.95
2023-02-24T13:09:06.294Z,1000.93
2023-02-24T13:10:06.268Z,1000.96
2023-02-24T13:11:06.262Z,1000.94
2023-02-24T13:12:06.254Z,1000.90
2023-02-24T13:13:06.227Z,1000.89
2023-02-24T13:14:06.218Z,1000.86
2023-02-24T13:15:06.209Z,1000.87
2023-02-24T13:16:06.207Z,1000.88
2023-02-24T13:17:06.195Z,1000.90
2023-02-24T13:18:06.167Z,1000.82
2023-02-24T13:19:06.173Z,1000.84
2023-02-24T13:20:06.158Z,1000.81
2023-02-24T13:21:06.218Z,1000.81
2023-02-24T13:22:06.128Z,1000.79
2023-02-24T13:23:06.116Z,1000.75
2023-02-24T13:24:06.137Z,1000.74
2023-02-24T13:25:06.096Z,1000.67
2023-02-24T13:26:06.082Z,1000.65
2023-02-24T13:27:06.068Z,1000.65
2023-02-24T13:28:06.082Z,1000.67
2023-02-24T13:29:06.046Z,1000.62
2023-02-24T13:30:06.022Z,1000.58
2023-02-24T13:31:06.075Z,1000.64
2023-02-24T13:32:06.110Z,1000.64
2023-02-24T13:33:06.003Z,1000.60
2023-02-24T13:34:05.973Z,1000.68
2023-02-24T13:35:05.977Z,1000.63
2023-02-24T13:36:06.005Z,1000.59
2023-02-24T13:37:05.954Z,1000.61
2023-02-24T13:38:05.932Z,1000.59
2023-02-24T13:39:05.950Z,1000.59
2023-02-24T13:40:05.910Z,1000.60
2023-02-24T13:41:05.913Z,1000.62
2023-02-24T13:42:05.935Z,1000.62
2023-02-24T13:43:05.876Z,1000.59
2023-02-24T13:44:05.874Z,1000.59
2023-02-24T13:45:05.875Z,1000.59
2023-02-24T13:46:05.887Z,1000.57
2023-02-24T13:47:05.863Z,1000.52
2023-02-24T13:48:05.831Z,1000.45
2023-02-24T13:49:05.830Z,1000.48
2023-02-24T13:50:05.809Z,1000.47
2023-02-24T13:51:05.810Z,1000.44
2023-02-24T13:52:05.840Z,1000.49
2023-02-24T13:53:05.769Z,1000.45
2023-02-24T13:54:05.766Z,1000.43
2023-02-24T13:55:05.771Z,1000.39
2023-02-24T13:56:05.729Z,1000.36
2023-02-24T13:57:05.752Z,1000.38
2023-02-24T13:58:05.710Z,1000.35
2023-02-24T13:59:05.706Z,1000.34
2023-02-24T14:00:05.690Z,1000.30
2023-02-24T14:01:05.739Z,1000.30
2023-02-24T14:02:05.708Z,1000.32
2023-02-24T14:03:05.656Z,1000.24
2023-02-24T14:04:05.658Z,1000.25
2023-02-24T14:05:05.638Z,1000.19
2023-02-24T14:06:05.627Z,1000.21
2023-02-24T14:07:05.642Z,1000.21
2023-02-24T14:08:05.623Z,1000.20
2023-02-24T14:09:05.597Z,1000.20
2023-02-24T14:10:05.595Z,1000.20
2023-02-24T14:11:05.583Z,1000.14
2023-02-24T14:12:05.568Z,1000.15
2023-02-24T14:13:05.553Z,1000.10
2023-02-24T14:14:05.524Z,1000.15
2023-02-24T14:15:05.519Z,1000.17
2023-02-24T14:16:05.542Z,1000.17
2023-02-24T14:17:05.538Z,1000.11
2023-02-24T14:18:05.490Z,1000.11
2023-02-24T14:19:05.486Z,1000.10
2023-02-24T14:20:05.477Z,1000.03
2023-02-24T14:21:05.462Z,1000.09
2023-02-24T14:22:05.449Z,999.99
2023-02-24T14:23:05.472Z,999.98
2023-02-24T14:24:05.445Z,999.95
2023-02-24T14:25:05.421Z,999.98
2023-02-24T14:26:05.417Z,999.98
2023-02-24T14:27:05.394Z,999.98
2023-02-24T14:28:05.394Z,999.97
2023-02-24T14:29:05.362Z,999.97
2023-02-24T14:30:05.381Z,999.95
2023-02-24T14:31:05.434Z,999.92
2023-02-24T14:32:05.483Z,999.93
2023-02-24T14:33:05.343Z,999.91
2023-02-24T14:34:05.304Z,999.91
2023-02-24T14:35:05.305Z,999.87
2023-02-24T14:36:05.283Z,999.88
2023-02-24T14:37:05.271Z,999.86
2023-02-24T14:38:05.277Z,999.84
2023-02-24T14:39:05.264Z,999.79
2023-02-24T14:40:05.253Z,999.84
2023-02-24T14:41:05.221Z,999.83
2023-02-24T14:42:05.227Z,999.80
2023-02-24T14:43:05.236Z,999.81
2023-02-24T14:44:05.199Z,999.83
2023-02-24T14:45:05.191Z,999.81
2023-02-24T14:46:05.196Z,999.75
2023-02-24T14:47:05.166Z,999.72
2023-02-24T14:48:05.165Z,999.69
2023-02-24T14:49:05.141Z,999.67
2023-02-24T14:50:05.122Z,999.74
2023-02-24T14:51:05.108Z,999.74
2023-02-24T14:52:05.102Z,999.66
2023-02-24T14:53:05.147Z,999.67
2023-02-24T14:54:05.069Z,999.61
2023-02-24T14:55:05.074Z,999.63
2023-02-24T14:56:06.176Z,999.61
2023-02-24T14:57:05.068Z,999.65
2023-02-24T14:58:05.026Z,999.64
2023-02-24T14:59:05.041Z,999.58
2023-02-24T15:00:05.020Z,999.51
2023-02-24T15:01:05.017Z,999.55
2023-02-24T15:02:05.015Z,999.52
2023-02-24T15:03:05.037Z,999.57
2023-02-24T15:04:05.171Z,999.60
2023-02-24T15:05:04.968Z,999.54
2023-02-24T15:06:04.943Z,999.55
2023-02-24T15:07:04.934Z,999.58
2023-02-24T15:08:04.922Z,999.56
2023-02-24T15:09:04.944Z,999.55
2023-02-24T15:10:04.900Z,999.53
2023-02-24T15:11:04.926Z,999.49
2023-02-24T15:12:04.893Z,999.49
2023-02-24T15:13:04.877Z,999.54
2023-02-24T15:14:04.880Z,999.51
2023-02-24T15:15:04.853Z,999.54
2023-02-24T15:16:04.901Z,999.43
2023-02-24T15:17:04.824Z,999.52
2023-02-24T15:18:04.808Z,999.45
2023-02-24T15:19:04.828Z,999.45
2023-02-24T15:20:04.806Z,999.39
2023-02-24T15:21:04.770Z,999.41
2023-02-24T15:22:04.751Z,999.35
2023-02-24T15:23:04.742Z,999.36
2023-02-24T15:24:04.742Z,999.34
2023-02-24T15:25:04.739Z,999.36
2023-02-24T15:26:04.710Z,999.34
2023-02-24T15:27:04.713Z,999.28
2023-02-24T15:28:04.762Z,999.33
2023-02-24T15:29:04.672Z,999.28
2023-02-24T15:30:04.749Z,999.24
2023-02-24T15:31:04.832Z,999.30
2023-02-24T15:32:04.815Z,999.25
2023-02-24T15:33:04.642Z,999.26
2023-02-24T15:34:04.618Z,999.23
2023-02-24T15:35:04.621Z,999.17
2023-02-24T15:36:04.601Z,999.20
2023-02-24T15:37:04.596Z,999.12
2023-02-24T15:38:04.572Z,999.16
2023-02-24T15:39:04.576Z,999.19
2023-02-24T15:40:04.572Z,999.22
2023-02-24T15:41:04.542Z,999.10
2023-02-24T15:42:04.638Z,999.15
2023-02-24T15:43:04.527Z,999.15
2023-02-24T15:44:04.520Z,999.13
2023-02-24T15:45:04.514Z,999.10
2023-02-24T15:46:04.474Z,999.15
2023-02-24T15:47:04.594Z,999.17
2023-02-24T15:48:04.521Z,999.15
2023-02-24T15:49:04.446Z,999.09
2023-02-24T15:50:04.468Z,999.12
2023-02-24T15:51:04.446Z,999.08
2023-02-24T15:52:04.445Z,999.03
2023-02-24T15:53:04.416Z,998.95
2023-02-24T15:54:04.421Z,998.98
2023-02-24T15:55:04.391Z,998.96
2023-02-24T15:56:04.377Z,998.98
2023-02-24T15:57:04.375Z,998.99
2023-02-24T15:58:04.340Z,998.93
2023-02-24T15:59:04.356Z,998.91
2023-02-24T16:00:04.346Z,998.88
2023-02-24T16:01:04.466Z,998.88
2023-02-24T16:02:04.312Z,998.82
2023-02-24T16:03:04.282Z,998.78
2023-02-24T16:04:04.324Z,998.83
2023-02-24T16:05:04.262Z,998.81
2023-02-24T16:06:04.265Z,998.81
2023-02-24T16:07:04.272Z,998.82
2023-02-24T16:08:04.251Z,998.80
2023-02-24T16:09:04.228Z,998.91
2023-02-24T16:10:04.204Z,998.82
2023-02-24T16:11:04.209Z,998.84
2023-02-24T16:12:04.260Z,998.83
2023-02-24T16:13:04.179Z,998.81
2023-02-24T16:14:04.226Z,998.80
2023-02-24T16:15:04.187Z,998.81
2023-02-24T16:16:04.210Z,998.79
2023-02-24T16:17:04.180Z,998.75
2023-02-24T16:18:04.150Z,998.82
2023-02-24T16:19:04.100Z,998.95
2023-02-24T16:20:04.091Z,998.88
2023-02-24T16:21:04.173Z,998.94
2023-02-24T16:22:04.111Z,998.91
2023-02-24T16:23:04.093Z,998.96
2023-02-24T16:24:04.043Z,998.92
2023-02-24T16:25:04.031Z,998.86
2023-02-24T16:26:04.036Z,998.91
2023-02-24T16:27:04.036Z,998.87
2023-02-24T16:28:04.011Z,998.87
2023-02-24T16:29:03.987Z,998.86
2023-02-24T16:30:03.994Z,998.86
2023-02-24T16:31:04.091Z,998.84
2023-02-24T16:32:04.304Z,998.92
2023-02-24T16:33:04.134Z,998.85
2023-02-24T16:34:04.087Z,998.90
2023-02-24T16:35:03.927Z,998.86
2023-02-24T16:36:03.930Z,998.84
2023-02-24T16:37:03.928Z,998.83
2023-02-24T16:38:03.899Z,998.78
2023-02-24T16:39:03.889Z,998.80
2023-02-24T16:40:03.862Z,998.75
2023-02-24T16:41:03.865Z,998.79
2023-02-24T16:42:03.877Z,998.83
2023-02-24T16:43:03.872Z,998.72
2023-02-24T16:44:03.817Z,998.76
2023-02-24T16:45:03.815Z,998.77
2023-02-24T16:46:04.000Z,998.73
2023-02-24T16:47:03.801Z,998.67
2023-02-24T16:48:03.797Z,998.70
2023-02-24T16:49:03.787Z,998.71
2023-02-24T16:50:03.750Z,998.68
2023-02-24T16:51:03.747Z,998.72
2023-02-24T16:52:03.740Z,998.69
2023-02-24T16:53:03.725Z,998.68
2023-02-24T16:54:03.736Z,998.70
2023-02-24T16:55:03.691Z,998.66
2023-02-24T16:56:03.698Z,998.73
2023-02-24T16:57:03.703Z,998.73
2023-02-24T16:58:03.664Z,998.78
2023-02-24T16:59:03.677Z,998.83
2023-02-24T17:00:03.644Z,998.82
2023-02-24T17:01:03.707Z,998.82
2023-02-24T17:02:03.629Z,998.86
2023-02-24T17:03:03.612Z,998.77
2023-02-24T17:04:03.663Z,998.78
2023-02-24T17:05:03.581Z,998.75
2023-02-24T17:06:03.575Z,998.70
2023-02-24T17:07:03.603Z,998.77
2023-02-24T17:08:03.549Z,998.75
2023-02-24T17:09:03.561Z,998.73
2023-02-24T17:10:03.534Z,998.79
2023-02-24T17:11:03.527Z,998.74
2023-02-24T17:12:03.557Z,998.73
2023-02-24T17:13:03.489Z,998.75
2023-02-24T17:14:03.522Z,998.68
2023-02-24T17:15:03.477Z,998.74
2023-02-24T17:16:03.470Z,998.75
2023-02-24T17:17:03.536Z,998.71
2023-02-24T17:18:03.450Z,998.79
2023-02-24T17:19:03.481Z,998.81
2023-02-24T17:20:03.434Z,998.75
2023-02-24T17:21:03.404Z,998.75
2023-02-24T17:22:03.430Z,998.80
2023-02-24T17:23:03.381Z,998.80
2023-02-24T17:24:03.395Z,998.81
2023-02-24T17:25:03.363Z,998.82
2023-02-24T17:26:03.370Z,998.82
2023-02-24T17:27:03.337Z,998.84
2023-02-24T17:28:05.436Z,998.77
2023-02-24T17:29:03.345Z,998.77
2023-02-24T17:30:03.304Z,998.77
2023-02-24T17:31:03.474Z,998.75
2023-02-24T17:32:03.482Z,998.73
2023-02-24T17:33:03.298Z,998.74
2023-02-24T17:34:05.983Z,998.72
2023-02-24T17:35:03.241Z,998.69
2023-02-24T17:36:03.252Z,998.67
2023-02-24T17:37:03.218Z,998.62
2023-02-24T17:38:03.207Z,998.67
2023-02-24T17:39:03.207Z,998.66
2023-02-24T17:40:05.434Z,998.68
2023-02-24T17:41:03.174Z,998.67
2023-02-24T17:42:03.171Z,998.71
2023-02-24T17:43:03.157Z,998.63
2023-02-24T17:44:03.154Z,998.74
2023-02-24T17:45:03.122Z,998.74
2023-02-24T17:46:05.767Z,998.77
2023-02-24T17:47:03.109Z,998.78
2023-02-24T17:48:03.103Z,998.76
2023-02-24T17:49:03.134Z,998.82
2023-02-24T17:50:03.077Z,998.80
2023-02-24T17:51:03.057Z,998.82
2023-02-24T17:52:05.851Z,998.79
2023-02-24T17:53:03.056Z,998.82
2023-02-24T17:54:03.038Z,998.86
2023-02-24T17:55:03.020Z,998.84
2023-02-24T17:56:03.465Z,998.83
2023-02-24T17:57:03.004Z,998.84
2023-02-24T17:58:03.014Z,998.80
2023-02-24T17:59:02.977Z,998.84
2023-02-24T18:00:03.008Z,998.84
2023-02-24T18:01:02.985Z,998.82
2023-02-24T18:02:03.019Z,998.85
2023-02-24T18:03:03.654Z,998.81
2023-02-24T18:04:02.944Z,998.81
2023-02-24T18:05:02.906Z,998.84
2023-02-24T18:06:02.944Z,998.78
2023-02-24T18:07:02.891Z,998.81
2023-02-24T18:08:02.896Z,998.85
2023-02-24T18:09:02.862Z,998.87
2023-02-24T18:10:02.850Z,998.85
2023-02-24T18:11:02.822Z,998.83
2023-02-24T18:12:02.862Z,998.80
2023-02-24T18:13:02.819Z,998.79
2023-02-24T18:14:02.792Z,998.89
2023-02-24T18:15:08.684Z,998.85
2023-02-24T18:16:03.830Z,998.89
2023-02-24T18:17:02.758Z,998.89
2023-02-24T18:18:02.768Z,998.86
2023-02-24T18:19:02.733Z,998.88
2023-02-24T18:20:02.750Z,998.89
2023-02-24T18:21:02.753Z,998.89
2023-02-24T18:22:02.712Z,998.92
2023-02-24T18:23:02.698Z,998.92
2023-02-24T18:24:02.732Z,998.92
2023-02-24T18:25:02.682Z,998.93
2023-02-24T18:26:02.669Z,998.98
2023-02-24T18:27:02.640Z,998.89
2023-02-24T18:28:02.650Z,998.91
2023-02-24T18:29:02.633Z,998.87
2023-02-24T18:30:02.629Z,998.90
2023-02-24T18:31:02.742Z,998.95
2023-02-24T18:32:02.900Z,998.94
2023-02-24T18:33:02.788Z,998.92
2023-02-24T18:37:35.256Z,998.88
2023-02-24T18:38:32.003Z,999.00
2023-02-24T18:39:32.040Z,998.92
2023-02-24T18:40:31.987Z,998.96
2023-02-24T18:41:31.978Z,998.89
2023-02-24T18:42:31.979Z,998.91
2023-02-24T18:43:31.942Z,998.89
2023-02-24T18:44:31.949Z,998.86
2023-02-24T18:45:31.926Z,998.82
2023-02-24T18:46:31.993Z,998.82
2023-02-24T18:47:31.908Z,998.83
2023-02-24T18:48:31.899Z,998.83
2023-02-24T18:49:31.873Z,998.84
2023-02-24T18:50:31.874Z,998.87
2023-02-24T18:51:31.854Z,998.89
2023-02-24T18:52:31.896Z,998.91
2023-02-24T18:53:31.847Z,998.92
2023-02-24T18:54:31.812Z,998.91
2023-02-24T18:55:31.844Z,998.90
2023-02-24T18:56:31.805Z,998.90
2023-02-24T18:57:31.803Z,998.88